createdAt,value
2022-12-13T00:02:10.369Z,9.10
2022-12-13T00:04:38.516Z,8.67
2022-12-13T00:07:08.291Z,8.13
2022-12-13T00:09:36.368Z,8.03
2022-12-13T00:12:04.780Z,8.20
2022-12-13T00:14:33.792Z,7.30
2022-12-13T00:17:02.048Z,7.80
2022-12-13T00:19:30.372Z,7.47
2022-12-13T00:21:58.557Z,7.50
2022-12-13T00:24:28.079Z,7.87
2022-12-13T00:26:56.673Z,7.27
2022-12-13T00:29:24.783Z,8.10
2022-12-13T00:32:00.222Z,7.67
2022-12-13T00:34:29.422Z,7.23
2022-12-13T00:36:59.237Z,7.43
2022-12-13T00:39:29.542Z,8.37
2022-12-13T00:41:57.900Z,7.37
2022-12-13T00:44:26.273Z,8.73
2022-12-13T00:46:54.796Z,8.13
2022-12-13T00:49:22.998Z,7.30
2022-12-13T00:51:51.190Z,7.97
2022-12-13T00:54:19.909Z,8.77
2022-12-13T00:56:51.374Z,7.73
2022-12-13T00:59:19.652Z,8.07
2022-12-13T01:01:47.846Z,8.37
2022-12-13T01:04:16.148Z,7.57
2022-12-13T01:06:45.964Z,7.37
2022-12-13T01:09:18.410Z,7.87
2022-12-13T01:11:47.569Z,7.87
2022-12-13T01:14:17.639Z,8.00
2022-12-13T01:16:46.007Z,7.70
2022-12-13T01:19:14.196Z,8.03
2022-12-13T01:21:42.283Z,7.43
2022-12-13T01:24:10.489Z,7.33
2022-12-13T01:26:38.694Z,7.10
2022-12-13T01:29:07.041Z,7.57
2022-12-13T01:31:37.573Z,8.33
2022-12-13T01:34:13.134Z,7.47
2022-12-13T01:36:43.639Z,7.83
2022-12-13T01:39:15.140Z,8.50
2022-12-13T01:41:45.525Z,8.10
2022-12-13T01:44:50.849Z,7.93
2022-12-13T01:47:25.153Z,7.70
2022-12-13T01:49:55.783Z,7.73
2022-12-13T01:52:24.317Z,7.27
2022-12-13T01:54:57.057Z,7.87
2022-12-13T01:57:34.435Z,8.37
2022-12-13T02:00:03.180Z,8.13
2022-12-13T02:02:37.438Z,7.90
2022-12-13T02:05:09.908Z,8.40
2022-12-13T02:07:39.391Z,8.37
2022-12-13T02:10:09.550Z,8.40
2022-12-13T02:12:39.384Z,8.30
2022-12-13T02:15:12.003Z,8.60
2022-12-13T02:17:57.333Z,8.07
2022-12-13T02:20:55.857Z,9.17
2022-12-13T02:24:00.215Z,9.03
2022-12-13T02:26:52.059Z,8.93
2022-12-13T02:29:44.741Z,8.00
2022-12-13T02:32:18.995Z,7.70
2022-12-13T02:34:52.725Z,8.13
2022-12-13T02:37:26.476Z,9.33
2022-12-13T02:40:01.379Z,8.00
2022-12-13T02:42:36.106Z,8.00
2022-12-13T02:45:09.756Z,8.53
2022-12-13T02:47:43.418Z,9.10
2022-12-13T02:50:15.135Z,8.83
2022-12-13T02:52:46.717Z,8.40
2022-12-13T02:55:18.007Z,10.03
2022-12-13T02:57:48.702Z,7.80
2022-12-13T03:00:20.526Z,8.83
2022-12-13T03:03:03.105Z,8.60
2022-12-13T03:05:58.550Z,8.43
2022-12-13T03:08:33.561Z,8.93
2022-12-13T03:11:07.023Z,9.00
2022-12-13T03:13:44.546Z,8.67
2022-12-13T03:16:23.041Z,9.23
2022-12-13T03:18:54.527Z,10.17
2022-12-13T03:21:23.662Z,7.90
2022-12-13T03:23:51.888Z,8.10
2022-12-13T03:26:23.340Z,10.23
2022-12-13T03:28:51.976Z,9.93
2022-12-13T03:31:21.025Z,8.20
2022-12-13T03:33:49.334Z,8.10
2022-12-13T03:36:19.936Z,9.10
2022-12-13T03:38:52.432Z,10.47
2022-12-13T03:41:23.991Z,9.20
2022-12-13T03:43:52.231Z,9.00
2022-12-13T03:46:20.414Z,9.80
2022-12-13T03:48:48.606Z,9.30
2022-12-13T03:51:18.145Z,10.67
2022-12-13T03:53:46.332Z,9.33
2022-12-13T03:56:14.484Z,10.00
2022-12-13T03:58:43.335Z,9.57
2022-12-13T04:01:13.569Z,9.37
2022-12-13T04:03:44.173Z,9.57
2022-12-13T04:06:13.351Z,9.73
2022-12-13T04:08:53.154Z,9.50
2022-12-13T04:11:42.793Z,9.10
2022-12-13T04:14:11.776Z,9.17
2022-12-13T04:16:40.630Z,9.33
2022-12-13T04:19:08.764Z,9.20
2022-12-13T04:21:36.939Z,8.93
2022-12-13T04:24:06.939Z,9.27
2022-12-13T04:26:35.022Z,8.97
2022-12-13T04:29:03.212Z,9.53
2022-12-13T04:31:31.425Z,8.80
2022-12-13T04:33:59.605Z,9.13
2022-12-13T04:36:32.588Z,8.90
2022-12-13T04:39:01.964Z,8.90
2022-12-13T04:41:36.070Z,9.13
2022-12-13T04:44:05.293Z,9.90
2022-12-13T04:46:33.899Z,9.80
2022-12-13T04:49:02.456Z,9.10
2022-12-13T04:51:31.408Z,8.67
2022-12-13T04:54:13.025Z,10.80
2022-12-13T04:56:50.121Z,9.63
2022-12-13T04:59:18.692Z,9.63
2022-12-13T05:01:46.778Z,10.17
2022-12-13T05:04:14.881Z,9.80
2022-12-13T05:06:43.081Z,9.03
2022-12-13T05:09:11.754Z,10.30
2022-12-13T05:11:45.863Z,10.40
2022-12-13T05:14:23.207Z,11.43
2022-12-13T05:16:52.110Z,10.33
2022-12-13T05:19:20.486Z,11.07
2022-12-13T05:21:49.789Z,12.80
2022-12-13T05:24:19.053Z,11.80
2022-12-13T05:26:47.116Z,11.20
2022-12-13T05:29:15.271Z,11.00
2022-12-13T05:31:45.054Z,11.23
2022-12-13T05:34:13.308Z,13.50
2022-12-13T05:36:42.057Z,13.87
2022-12-13T05:39:28.817Z,15.13
2022-12-13T05:42:01.133Z,14.20
2022-12-13T05:44:29.875Z,14.10
2022-12-13T05:46:59.558Z,15.10
2022-12-13T05:49:30.590Z,14.67
2022-12-13T05:51:58.783Z,17.13
2022-12-13T05:54:26.863Z,14.23
2022-12-13T05:56:54.948Z,13.70
2022-12-13T05:59:23.452Z,12.57
2022-12-13T06:01:51.630Z,9.30
2022-12-13T06:04:22.858Z,13.13
2022-12-13T06:06:52.033Z,13.07
2022-12-13T06:09:20.396Z,11.60
2022-12-13T06:11:48.670Z,10.60
2022-12-13T06:14:21.827Z,9.73
2022-12-13T06:16:51.894Z,11.47
2022-12-13T06:19:24.772Z,9.87
2022-12-13T06:21:55.485Z,10.60
2022-12-13T06:24:25.292Z,11.60
2022-12-13T06:26:54.617Z,13.83
2022-12-13T06:29:25.675Z,13.33
2022-12-13T06:32:00.992Z,13.60
2022-12-13T06:34:34.478Z,12.30
2022-12-13T06:37:04.852Z,12.97
2022-12-13T06:39:33.766Z,14.60
2022-12-13T06:42:03.516Z,14.67
2022-12-13T06:44:31.758Z,14.20
2022-12-13T06:47:10.026Z,14.43
2022-12-13T06:49:44.281Z,14.57
2022-12-13T06:52:14.965Z,14.47
2022-12-13T06:54:43.537Z,13.33
2022-12-13T06:57:12.054Z,13.77
2022-12-13T06:59:40.585Z,13.30
2022-12-13T07:02:24.456Z,12.67
2022-12-13T07:04:55.848Z,13.20
2022-12-13T07:07:25.225Z,12.50
2022-12-13T07:09:53.443Z,13.37
2022-12-13T07:12:22.035Z,12.57
2022-12-13T07:14:50.222Z,12.30
2022-12-13T07:17:33.255Z,12.17
2022-12-13T07:20:07.884Z,14.03
2022-12-13T07:22:43.001Z,13.77
2022-12-13T07:25:28.091Z,12.70
2022-12-13T07:28:03.084Z,13.20
2022-12-13T07:30:32.597Z,13.70
2022-12-13T07:33:01.995Z,14.20
2022-12-13T07:35:36.981Z,13.20
2022-12-13T07:38:07.208Z,13.37
2022-12-13T07:40:35.733Z,11.53
2022-12-13T07:43:04.584Z,12.43
2022-12-13T07:45:32.871Z,10.27
2022-12-13T07:48:05.569Z,10.77
2022-12-13T07:50:36.902Z,13.00
2022-12-13T07:53:07.272Z,16.40
2022-12-13T07:55:35.882Z,13.80
2022-12-13T07:58:08.717Z,10.73
2022-12-13T08:00:37.186Z,10.10
2022-12-13T08:03:06.008Z,11.37
2022-12-13T08:05:38.787Z,11.20
2022-12-13T08:08:09.212Z,11.37
2022-12-13T08:10:38.006Z,9.40
2022-12-13T08:13:07.346Z,8.50
2022-12-13T08:15:35.473Z,8.20
2022-12-13T08:18:04.172Z,7.10
2022-12-13T08:20:32.399Z,7.83
2022-12-13T08:23:02.713Z,6.90
2022-12-13T08:25:31.773Z,7.23
2022-12-13T08:28:01.966Z,7.40
2022-12-13T08:30:32.666Z,6.07
2022-12-13T08:33:04.737Z,6.50
2022-12-13T08:35:35.020Z,6.47
2022-12-13T08:38:05.327Z,6.20
2022-12-13T08:40:33.518Z,6.23
2022-12-13T08:43:01.762Z,6.43
2022-12-13T08:45:31.743Z,6.27
2022-12-13T08:48:00.825Z,7.27
2022-12-13T08:50:29.252Z,6.43
2022-12-13T08:52:57.698Z,6.97
2022-12-13T08:55:31.620Z,7.00
2022-12-13T08:58:04.867Z,6.47
2022-12-13T09:00:35.660Z,5.63
2022-12-13T09:03:04.801Z,5.97
2022-12-13T09:05:35.184Z,6.80
2022-12-13T09:08:13.263Z,6.67
2022-12-13T09:10:59.690Z,6.50
2022-12-13T09:13:32.488Z,7.60
2022-12-13T09:16:05.248Z,6.97
2022-12-13T09:18:42.407Z,6.80
2022-12-13T09:21:13.464Z,6.50
2022-12-13T09:23:50.281Z,5.43
2022-12-13T09:26:25.494Z,5.87
2022-12-13T09:28:53.884Z,5.83
2022-12-13T09:31:22.642Z,5.87
2022-12-13T09:33:50.894Z,7.03
2022-12-13T09:36:21.375Z,7.47
2022-12-13T09:38:49.808Z,7.37
2022-12-13T09:41:28.578Z,6.90
2022-12-13T09:44:01.719Z,6.37
2022-12-13T09:46:34.266Z,6.90
2022-12-13T09:49:22.977Z,7.33
2022-12-13T09:52:11.169Z,7.23
2022-12-13T09:54:49.388Z,6.67
2022-12-13T09:57:32.387Z,7.57
2022-12-13T10:00:03.487Z,7.13
2022-12-13T10:02:44.855Z,6.67
2022-12-13T10:05:22.580Z,6.60
2022-12-13T10:07:55.840Z,5.77
2022-12-13T10:10:24.954Z,4.90
2022-12-13T10:13:00.007Z,4.60
2022-12-13T10:15:29.439Z,5.30
2022-12-13T10:17:58.448Z,5.07
2022-12-13T10:20:30.056Z,5.53
2022-12-13T10:25:51.296Z,5.50
2022-12-13T10:28:27.819Z,5.63
2022-12-13T10:30:57.052Z,5.20
2022-12-13T10:33:28.411Z,5.10
2022-12-13T10:36:14.137Z,4.70
2022-12-13T10:38:44.211Z,5.17
2022-12-13T10:41:35.376Z,5.30
2022-12-13T10:44:17.430Z,5.23
2022-12-13T10:46:51.089Z,5.77
2022-12-13T10:49:23.077Z,5.30
2022-12-13T10:51:52.686Z,5.07
2022-12-13T10:54:28.168Z,4.63
2022-12-13T10:57:00.345Z,4.30
2022-12-13T10:59:35.124Z,4.00
2022-12-13T11:02:21.703Z,4.37
2022-12-13T11:04:50.308Z,3.80
2022-12-13T11:07:27.000Z,3.80
2022-12-13T11:09:55.193Z,4.03
2022-12-13T11:12:26.086Z,3.83
2022-12-13T11:14:59.283Z,4.60
2022-12-13T11:17:29.449Z,4.80
2022-12-13T11:19:59.209Z,5.00
2022-12-13T11:22:29.930Z,4.63
2022-12-13T11:25:02.611Z,4.27
2022-12-13T11:27:51.095Z,4.00
2022-12-13T11:30:25.598Z,3.90
2022-12-13T11:33:14.636Z,4.23
2022-12-13T11:35:54.717Z,4.23
2022-12-13T11:38:32.042Z,3.97
2022-12-13T11:41:07.590Z,3.97
2022-12-13T11:43:41.466Z,6.60
2022-12-13T11:46:18.966Z,4.73
2022-12-13T11:48:52.998Z,4.10
2022-12-13T11:51:28.311Z,3.90
2022-12-13T11:54:01.431Z,4.43
2022-12-13T11:56:35.363Z,4.13
2022-12-13T11:59:25.998Z,3.53
2022-12-13T12:02:05.063Z,3.53
2022-12-13T12:04:40.573Z,3.23
2022-12-13T12:07:32.341Z,3.10
2022-12-13T12:10:15.422Z,3.13
2022-12-13T12:12:50.768Z,3.10
2022-12-13T12:15:26.583Z,3.13
2022-12-13T12:17:57.303Z,3.13
2022-12-13T12:20:43.193Z,3.00
2022-12-13T12:23:21.821Z,3.60
2022-12-13T12:25:57.047Z,3.40
2022-12-13T12:28:33.069Z,3.47
2022-12-13T12:31:09.955Z,3.80
2022-12-13T12:33:51.256Z,3.03
2022-12-13T12:36:40.813Z,3.47
2022-12-13T12:39:33.245Z,3.30
2022-12-13T12:42:28.679Z,3.40
2022-12-13T12:45:17.443Z,3.07
2022-12-13T12:48:48.960Z,3.43
2022-12-13T12:51:03.942Z,2.50
2022-12-13T12:53:40.921Z,2.70
2022-12-13T12:56:32.833Z,3.00
2022-12-13T12:59:13.604Z,3.63
2022-12-13T13:01:54.014Z,3.60
2022-12-13T13:04:28.085Z,3.13
2022-12-13T13:07:02.159Z,4.27
2022-12-13T13:09:31.480Z,4.83
2022-12-13T13:12:29.733Z,3.03
2022-12-13T13:14:52.002Z,3.13
2022-12-13T13:17:47.143Z,3.13
2022-12-13T13:20:25.158Z,3.20
2022-12-13T13:23:17.510Z,3.53
2022-12-13T13:26:16.032Z,3.00
2022-12-13T13:28:43.621Z,3.27
2022-12-13T13:31:12.848Z,3.00
2022-12-13T13:33:46.849Z,2.73
2022-12-13T13:36:48.356Z,2.50
2022-12-13T13:39:19.720Z,3.00
2022-12-13T13:41:57.152Z,2.97
2022-12-13T13:45:03.469Z,2.90
2022-12-13T13:47:43.167Z,6.63
2022-12-13T13:50:47.548Z,7.40
2022-12-13T13:53:56.005Z,4.40
2022-12-13T13:56:45.496Z,4.03
2022-12-13T14:00:03.859Z,3.20
2022-12-13T14:03:22.073Z,3.93
2022-12-13T14:06:49.857Z,4.80
2022-12-13T14:09:41.248Z,4.63
2022-12-13T14:12:42.202Z,4.90
2022-12-13T14:15:49.828Z,3.83
2022-12-13T14:19:07.219Z,3.17
2022-12-13T14:21:56.551Z,4.23
2022-12-13T14:24:47.118Z,4.23
2022-12-13T14:27:40.618Z,3.90
2022-12-13T14:30:28.255Z,4.23
2022-12-13T14:32:59.153Z,4.00
2022-12-13T14:35:29.383Z,4.00
2022-12-13T14:37:59.970Z,4.70
2022-12-13T14:40:32.020Z,5.63
2022-12-13T14:43:00.958Z,6.87
2022-12-13T14:45:31.585Z,6.77
2022-12-13T14:48:04.614Z,5.33
2022-12-13T14:50:36.771Z,7.17
2022-12-13T14:53:06.858Z,7.93
2022-12-13T14:55:37.533Z,7.33
2022-12-13T14:58:19.852Z,7.50
2022-12-13T15:00:48.607Z,6.60
2022-12-13T15:03:26.274Z,5.50
2022-12-13T15:05:57.343Z,6.03
2022-12-13T15:08:26.217Z,4.87
2022-12-13T15:10:56.806Z,5.07
2022-12-13T15:13:30.158Z,5.67
2022-12-13T15:16:01.725Z,5.03
2022-12-13T15:18:50.726Z,6.17
2022-12-13T15:21:27.900Z,5.17
2022-12-13T15:24:00.685Z,5.63
2022-12-13T15:26:33.555Z,5.93
2022-12-13T15:29:10.411Z,6.50
2022-12-13T15:31:40.580Z,6.73
2022-12-13T15:34:36.013Z,7.00
2022-12-13T15:37:08.071Z,6.47
2022-12-13T15:39:58.911Z,6.50
2022-12-13T15:42:33.445Z,7.17
2022-12-13T15:45:03.985Z,7.73
2022-12-13T15:47:32.767Z,7.20
2022-12-13T15:50:04.767Z,10.33
2022-12-13T15:52:36.235Z,10.07
2022-12-13T15:55:28.689Z,10.07
2022-12-13T15:57:58.811Z,8.27
2022-12-13T16:00:31.355Z,8.57
2022-12-13T16:03:09.746Z,7.20
2022-12-13T16:05:43.176Z,7.93
2022-12-13T16:08:25.358Z,7.70
2022-12-13T16:10:54.669Z,10.63
2022-12-13T16:13:27.281Z,10.73
2022-12-13T16:16:00.426Z,11.50
2022-12-13T16:18:46.169Z,11.47
2022-12-13T16:21:15.970Z,11.90
2022-12-13T16:23:48.800Z,10.93
2022-12-13T16:26:23.749Z,10.27
2022-12-13T16:28:52.021Z,9.77
2022-12-13T16:31:22.404Z,11.20
2022-12-13T16:33:51.119Z,11.37
2022-12-13T16:36:21.882Z,11.47
2022-12-13T16:38:51.138Z,8.40
2022-12-13T16:41:19.620Z,10.50
2022-12-13T16:43:56.204Z,9.63
2022-12-13T16:47:14.998Z,10.37
2022-12-13T16:49:21.375Z,8.90
2022-12-13T16:51:51.687Z,8.73
2022-12-13T16:54:21.421Z,8.13
2022-12-13T16:56:54.203Z,9.30
2022-12-13T16:59:25.271Z,8.27
2022-12-13T17:01:54.542Z,9.27
2022-12-13T17:04:27.742Z,7.87
2022-12-13T17:06:58.740Z,8.43
2022-12-13T17:09:27.219Z,8.73
2022-12-13T17:11:56.293Z,8.97
2022-12-13T17:14:25.250Z,9.17
2022-12-13T17:16:54.937Z,8.77
2022-12-13T17:19:24.944Z,8.93
2022-12-13T17:21:56.987Z,9.13
2022-12-13T17:24:28.044Z,9.33
2022-12-13T17:26:58.567Z,8.43
2022-12-13T17:29:29.119Z,8.80
2022-12-13T17:31:58.567Z,9.10
2022-12-13T17:34:28.563Z,8.70
2022-12-13T17:36:58.617Z,9.43
2022-12-13T17:39:29.560Z,9.73
2022-12-13T17:41:58.184Z,10.87
2022-12-13T17:44:26.635Z,12.00
2022-12-13T17:46:56.140Z,12.27
2022-12-13T17:49:25.450Z,11.83
2022-12-13T17:51:54.890Z,11.63
2022-12-13T17:54:25.359Z,15.07
2022-12-13T17:56:56.645Z,14.80
2022-12-13T17:59:25.761Z,19.03
2022-12-13T18:01:55.411Z,15.63
2022-12-13T18:04:23.987Z,15.60
2022-12-13T18:06:53.829Z,18.47
2022-12-13T18:09:22.698Z,27.27
2022-12-13T18:11:51.416Z,29.43
2022-12-13T18:14:24.392Z,30.27
2022-12-13T18:16:53.753Z,27.47
2022-12-13T18:19:26.489Z,24.27
2022-12-13T18:21:56.869Z,23.93
2022-12-13T18:24:27.396Z,19.50
2022-12-13T18:26:57.167Z,15.43
2022-12-13T18:29:28.578Z,16.37
2022-12-13T18:31:58.057Z,13.33
2022-12-13T18:34:27.134Z,14.93
2022-12-13T18:36:56.901Z,14.03
2022-12-13T18:39:26.023Z,14.67
2022-12-13T18:41:55.640Z,14.30
2022-12-13T18:44:26.864Z,14.93
2022-12-13T18:47:01.701Z,14.73
2022-12-13T18:49:31.176Z,14.67
2022-12-13T18:52:03.563Z,15.97
2022-12-13T18:54:33.073Z,15.83
2022-12-13T18:57:03.258Z,16.87
2022-12-13T18:59:34.671Z,15.90
2022-12-13T19:02:05.910Z,18.17
2022-12-13T19:04:37.705Z,17.87
2022-12-13T19:07:08.522Z,18.87
2022-12-13T19:09:39.246Z,18.00
2022-12-13T19:12:10.237Z,16.07
2022-12-13T19:14:41.196Z,15.33
2022-12-13T19:17:12.546Z,15.40
2022-12-13T19:19:42.901Z,15.30
2022-12-13T19:22:19.762Z,13.50
2022-12-13T19:24:49.908Z,12.67
2022-12-13T19:27:21.317Z,12.73
2022-12-13T19:29:55.660Z,13.47
2022-12-13T19:32:32.049Z,11.80
2022-12-13T19:35:03.062Z,12.20
2022-12-13T19:37:33.554Z,12.00
2022-12-13T19:40:06.068Z,12.03
2022-12-13T19:42:39.618Z,12.03
2022-12-13T19:45:19.964Z,11.60
2022-12-13T19:47:52.783Z,10.70
2022-12-13T19:50:23.080Z,12.03
2022-12-13T19:52:53.195Z,10.63
2022-12-13T19:55:24.048Z,10.47
2022-12-13T19:57:53.825Z,9.90
2022-12-13T20:00:30.384Z,11.37
2022-12-13T20:03:02.445Z,10.43
2022-12-13T20:05:33.990Z,11.10
2022-12-13T20:08:08.300Z,11.47
2022-12-13T20:10:40.534Z,11.97
2022-12-13T20:13:12.369Z,11.47
2022-12-13T20:15:50.730Z,12.77
2022-12-13T20:18:22.835Z,12.57
2022-12-13T20:21:11.571Z,12.57
2022-12-13T20:23:48.743Z,12.63
2022-12-13T20:26:23.577Z,12.00
2022-12-13T20:28:55.087Z,11.73
2022-12-13T20:31:27.163Z,12.97
2022-12-13T20:34:02.426Z,12.13
2022-12-13T20:36:34.877Z,11.83
2022-12-13T20:39:07.246Z,11.23
2022-12-13T20:41:38.665Z,12.00
2022-12-13T20:44:11.475Z,11.23
2022-12-13T20:46:41.670Z,11.37
2022-12-13T20:49:13.292Z,11.17
2022-12-13T20:51:44.129Z,12.33
2022-12-13T20:54:14.405Z,12.73
2022-12-13T20:56:44.301Z,11.00
2022-12-13T20:59:15.435Z,11.43
2022-12-13T21:01:48.894Z,13.10
2022-12-13T21:04:20.698Z,14.17
2022-12-13T21:06:49.725Z,12.57
2022-12-13T21:09:22.418Z,12.03
2022-12-13T21:11:52.092Z,12.30
2022-12-13T21:14:23.492Z,13.23
2022-12-13T21:16:53.230Z,13.23
2022-12-13T21:19:25.715Z,13.00
2022-12-13T21:21:54.774Z,12.17
2022-12-13T21:24:26.515Z,12.37
2022-12-13T21:26:56.618Z,12.83
2022-12-13T21:29:25.335Z,12.33
2022-12-13T21:31:55.104Z,11.93
2022-12-13T21:34:25.294Z,13.07
2022-12-13T21:36:54.223Z,12.20
2022-12-13T21:39:24.345Z,12.20
2022-12-13T21:41:53.950Z,13.13
2022-12-13T21:44:23.044Z,11.27
2022-12-13T21:49:41.263Z,11.43
2022-12-13T21:52:10.482Z,11.10
2022-12-13T21:54:38.755Z,12.50
2022-12-13T21:57:24.695Z,11.20
2022-12-13T21:59:52.840Z,10.90
2022-12-13T22:02:21.175Z,11.27
2022-12-13T22:04:52.487Z,10.10
2022-12-13T22:07:23.472Z,11.37
2022-12-13T22:09:52.668Z,10.70
2022-12-13T22:12:24.062Z,11.17
2022-12-13T22:14:53.057Z,11.57
2022-12-13T22:17:29.715Z,11.00
2022-12-13T22:20:05.247Z,9.93
2022-12-13T22:22:33.612Z,11.67
2022-12-13T22:25:01.995Z,11.27
2022-12-13T22:27:30.194Z,10.37
2022-12-13T22:29:58.730Z,10.00
2022-12-13T22:32:29.987Z,10.83
2022-12-13T22:34:58.302Z,10.73
2022-12-13T22:37:28.143Z,10.97
2022-12-13T22:39:56.209Z,10.03
2022-12-13T22:42:24.436Z,10.87
2022-12-13T22:44:52.469Z,10.80
2022-12-13T22:47:21.194Z,10.83
2022-12-13T22:49:49.420Z,10.30
2022-12-13T22:52:17.735Z,9.67
2022-12-13T22:54:47.391Z,9.50
2022-12-13T22:57:15.593Z,9.93
2022-12-13T22:59:43.743Z,9.67
2022-12-13T23:02:12.071Z,10.23
2022-12-13T23:04:40.315Z,9.70
2022-12-13T23:07:08.600Z,10.20
2022-12-13T23:09:36.766Z,9.97
2022-12-13T23:12:24.758Z,10.13
2022-12-13T23:14:52.879Z,9.60
2022-12-13T23:17:20.946Z,9.90
2022-12-13T23:19:53.458Z,9.60
2022-12-13T23:22:22.816Z,9.10
2022-12-13T23:24:51.313Z,9.23
2022-12-13T23:27:23.070Z,10.03
2022-12-13T23:29:51.731Z,9.80
2022-12-13T23:32:19.940Z,10.07
2022-12-13T23:34:48.075Z,9.17
2022-12-13T23:37:16.188Z,9.87
2022-12-13T23:39:44.374Z,9.03
2022-12-13T23:42:12.558Z,9.13
2022-12-13T23:44:43.140Z,10.47
2022-12-13T23:47:11.417Z,9.53
2022-12-13T23:49:39.561Z,8.57
2022-12-13T23:52:07.757Z,9.77
2022-12-13T23:54:35.901Z,8.93
2022-12-13T23:57:04.167Z,9.57
2022-12-13T23:59:32.322Z,9.60
